VJT13 SABE-SAZN
Flight info
| Callsign | VJT13 |
|---|---|
| Flight time | N/A |
| Altitude | 26000 |
| Route | PAL9 TORUL UT654 BIXIM UT669 ROPON ROPON3Q |
| Aircraft | BE20/L-SBGRY/S |
Departure
| Time | 2026-05-06 20:45 |
|---|---|
| Airport | Aeroparque Jorge Newbery (SABE) |
Arrival
| Time | N/A |
|---|---|
| Airport | Presidente Perón International Airport (SAZN) |
| Time | Latitude | Longitude | Altitude | Speed | Heading |
|---|---|---|---|---|---|
| 2026-05-06 20:22 | -34.56402 | -58.41032 | 22 ft | 0 kts | 214° |
| 2026-05-06 20:37 | -34.56403 | -58.41033 | 22 ft | 0 kts | 214° |
| 2026-05-06 20:38 | -34.56424 | -58.41054 | 22 ft | 4 kts | 246° |
| 2026-05-06 20:38 | -34.56377 | -58.41143 | 22 ft | 27 kts | 307° |
| 2026-05-06 20:38 | -34.56289 | -58.41300 | 22 ft | 18 kts | 298° |
| 2026-05-06 20:38 | -34.56232 | -58.41409 | 22 ft | 13 kts | 306° |
| 2026-05-06 20:39 | -34.56185 | -58.41486 | 22 ft | 9 kts | 333° |
| 2026-05-06 20:39 | -34.56134 | -58.41458 | 22 ft | 7 kts | 37° |
| 2026-05-06 20:39 | -34.56117 | -58.41442 | 22 ft | 0 kts | 36° |
| 2026-05-06 20:41 | -34.56108 | -58.41434 | 22 ft | 11 kts | 36° |
| 2026-05-06 20:41 | -34.55978 | -58.41326 | 22 ft | 12 kts | 34° |
| 2026-05-06 20:41 | -34.55956 | -58.41307 | 22 ft | 0 kts | 35° |
| 2026-05-06 20:42 | -34.55933 | -58.41301 | 22 ft | 15 kts | 348° |
| 2026-05-06 20:42 | -34.55847 | -58.41481 | 22 ft | 33 kts | 297° |
| 2026-05-06 20:42 | -34.55724 | -58.41772 | 22 ft | 40 kts | 302° |
| 2026-05-06 20:42 | -34.55574 | -58.42037 | 22 ft | 35 kts | 305° |
| 2026-05-06 20:43 | -34.55444 | -58.42249 | 22 ft | 26 kts | 307° |
| 2026-05-06 20:43 | -34.55370 | -58.42372 | 22 ft | 0 kts | 289° |
| 2026-05-06 20:44 | -34.55369 | -58.42376 | 22 ft | 0 kts | 289° |
| 2026-05-06 20:44 | -34.55365 | -58.42390 | 22 ft | 13 kts | 283° |
| 2026-05-06 20:44 | -34.55387 | -58.42509 | 22 ft | 12 kts | 200° |
| 2026-05-06 20:45 | -34.55447 | -58.42431 | 22 ft | 39 kts | 124° |
| 2026-05-06 20:45 | -34.55760 | -58.41868 | 22 ft | 111 kts | 124° |
| 2026-05-06 20:45 | -34.56199 | -58.41073 | 423 ft | 109 kts | 120° |
| 2026-05-06 20:45 | -34.56575 | -58.40288 | 793 ft | 111 kts | 119° |
| 2026-05-06 20:46 | -34.56923 | -58.39433 | 1068 ft | 120 kts | 105° |
| 2026-05-06 20:46 | -34.56806 | -58.38473 | 1426 ft | 119 kts | 67° |
| 2026-05-06 20:46 | -34.56419 | -58.37593 | 1799 ft | 118 kts | 64° |
| 2026-05-06 20:46 | -34.56030 | -58.36725 | 2156 ft | 120 kts | 65° |
| 2026-05-06 20:47 | -34.55624 | -58.35809 | 2421 ft | 127 kts | 65° |
| 2026-05-06 20:47 | -34.55199 | -58.34849 | 2679 ft | 132 kts | 64° |
| 2026-05-06 20:47 | -34.54753 | -58.33850 | 2936 ft | 136 kts | 64° |
| 2026-05-06 20:47 | -34.54286 | -58.32837 | 3188 ft | 139 kts | 58° |
| 2026-05-06 20:48 | -34.53487 | -58.32197 | 3433 ft | 144 kts | 13° |
| 2026-05-06 20:48 | -34.52519 | -58.32381 | 3685 ft | 144 kts | 329° |
| 2026-05-06 20:48 | -34.51895 | -58.33296 | 3940 ft | 141 kts | 285° |
| 2026-05-06 20:48 | -34.51776 | -58.34448 | 4196 ft | 139 kts | 269° |
| 2026-05-06 20:49 | -34.51751 | -58.35624 | 4447 ft | 140 kts | 268° |
| 2026-05-06 20:49 | -34.51797 | -58.36801 | 4698 ft | 139 kts | 259° |
| 2026-05-06 20:49 | -34.52001 | -58.37930 | 4931 ft | 139 kts | 252° |
| 2026-05-06 20:49 | -34.52300 | -58.39108 | 4992 ft | 155 kts | 248° |
| 2026-05-06 20:50 | -34.52724 | -58.40409 | 5010 ft | 176 kts | 245° |
| 2026-05-06 20:50 | -34.53233 | -58.41785 | 5159 ft | 180 kts | 243° |
| 2026-05-06 20:50 | -34.53775 | -58.43167 | 5257 ft | 184 kts | 242° |
| 2026-05-06 20:50 | -34.54350 | -58.44592 | 5329 ft | 187 kts | 242° |
| 2026-05-06 20:51 | -34.54911 | -58.45973 | 5341 ft | 177 kts | 242° |
| 2026-05-06 20:51 | -34.55455 | -58.47302 | 5182 ft | 174 kts | 243° |
| 2026-05-06 20:51 | -34.56025 | -58.48635 | 5051 ft | 179 kts | 244° |
| 2026-05-06 20:51 | -34.56565 | -58.49970 | 4990 ft | 178 kts | 245° |
| 2026-05-06 20:52 | -34.57103 | -58.51309 | 5003 ft | 174 kts | 245° |
| 2026-05-06 20:52 | -34.57640 | -58.52584 | 5094 ft | 162 kts | 249° |
| 2026-05-06 20:52 | -34.58164 | -58.53806 | 5052 ft | 165 kts | 253° |
| 2026-05-06 20:52 | -34.58660 | -58.55087 | 4997 ft | 169 kts | 253° |
| 2026-05-06 20:53 | -34.59184 | -58.56429 | 4993 ft | 171 kts | 253° |
| 2026-05-06 20:53 | -34.59706 | -58.57741 | 4991 ft | 172 kts | 253° |
| 2026-05-06 20:53 | -34.60239 | -58.59067 | 4994 ft | 172 kts | 252° |
| 2026-05-06 20:53 | -34.61111 | -58.60148 | 4991 ft | 186 kts | 216° |
| 2026-05-06 20:54 | -34.62272 | -58.60861 | 5148 ft | 178 kts | 211° |
| 2026-05-06 20:54 | -34.63377 | -58.61476 | 5410 ft | 169 kts | 211° |
| 2026-05-06 20:54 | -34.64509 | -58.62107 | 5425 ft | 187 kts | 211° |
| 2026-05-06 20:54 | -34.65688 | -58.62764 | 5687 ft | 187 kts | 211° |
| 2026-05-06 20:55 | -34.66891 | -58.63426 | 5943 ft | 190 kts | 211° |
| 2026-05-06 20:55 | -34.68102 | -58.64095 | 6199 ft | 196 kts | 211° |
| 2026-05-06 20:55 | -34.69363 | -58.64796 | 6457 ft | 200 kts | 211° |
| 2026-05-06 20:55 | -34.70650 | -58.65510 | 6715 ft | 202 kts | 212° |
| 2026-05-06 20:56 | -34.71959 | -58.66234 | 6976 ft | 203 kts | 212° |
| 2026-05-06 20:56 | -34.73289 | -58.66969 | 7242 ft | 204 kts | 212° |
| 2026-05-06 20:56 | -34.74670 | -58.67560 | 7492 ft | 211 kts | 188° |
| 2026-05-06 20:56 | -34.76113 | -58.67249 | 7767 ft | 214 kts | 165° |
| 2026-05-06 20:57 | -34.77530 | -58.66669 | 8022 ft | 215 kts | 162° |
| 2026-05-06 20:57 | -34.78952 | -58.66324 | 8265 ft | 208 kts | 193° |
| 2026-05-06 20:57 | -34.80243 | -58.66956 | 8552 ft | 197 kts | 214° |
| 2026-05-06 20:57 | -34.81496 | -58.67646 | 8807 ft | 198 kts | 212° |
| 2026-05-06 20:58 | -34.82738 | -58.68326 | 9064 ft | 198 kts | 213° |
| 2026-05-06 20:58 | -34.83990 | -58.69014 | 9317 ft | 197 kts | 213° |
| 2026-05-06 20:58 | -34.85255 | -58.69710 | 9504 ft | 201 kts | 213° |
| 2026-05-06 20:58 | -34.86532 | -58.70413 | 9664 ft | 204 kts | 213° |
| 2026-05-06 20:59 | -34.87816 | -58.71136 | 9824 ft | 205 kts | 213° |
| 2026-05-06 20:59 | -34.89109 | -58.71869 | 9983 ft | 207 kts | 213° |
| 2026-05-06 20:59 | -34.90427 | -58.72617 | 10139 ft | 207 kts | 213° |
| 2026-05-06 20:59 | -34.91724 | -58.73352 | 10297 ft | 208 kts | 213° |
| 2026-05-06 21:00 | -34.93033 | -58.74094 | 10451 ft | 208 kts | 213° |
| 2026-05-06 21:00 | -34.94350 | -58.74840 | 10610 ft | 208 kts | 214° |
| 2026-05-06 21:00 | -34.95628 | -58.75608 | 10764 ft | 204 kts | 221° |
| 2026-05-06 21:00 | -34.96703 | -58.76655 | 10922 ft | 195 kts | 235° |
| 2026-05-06 21:01 | -34.97615 | -58.77867 | 11083 ft | 192 kts | 239° |
| 2026-05-06 21:01 | -34.98078 | -58.78537 | 11165 ft | 191 kts | 240° |
| 2026-05-06 21:01 | -34.98906 | -58.79794 | 11320 ft | 188 kts | 242° |
| 2026-05-06 21:01 | -34.99686 | -58.81013 | 11438 ft | 175 kts | 243° |
| 2026-05-06 21:02 | -35.00397 | -58.82154 | 11553 ft | 166 kts | 244° |
| 2026-05-06 21:02 | -35.01073 | -58.83256 | 11675 ft | 158 kts | 246° |
| 2026-05-06 21:02 | -35.01715 | -58.84321 | 11794 ft | 152 kts | 246° |
| 2026-05-06 21:02 | -35.02322 | -58.85340 | 11915 ft | 147 kts | 247° |
| 2026-05-06 21:03 | -35.02918 | -58.86349 | 12041 ft | 143 kts | 248° |
| 2026-05-06 21:03 | -35.03484 | -58.87312 | 12162 ft | 139 kts | 248° |
| 2026-05-06 21:03 | -35.04044 | -58.88269 | 12292 ft | 135 kts | 248° |
| 2026-05-06 21:03 | -35.04581 | -58.89186 | 12415 ft | 133 kts | 249° |
| 2026-05-06 21:04 | -35.05118 | -58.90100 | 12546 ft | 129 kts | 249° |
| 2026-05-06 21:04 | -35.05639 | -58.90990 | 12672 ft | 126 kts | 250° |
| 2026-05-06 21:04 | -35.06140 | -58.91848 | 12798 ft | 123 kts | 250° |
| 2026-05-06 21:04 | -35.06636 | -58.92700 | 12926 ft | 120 kts | 250° |
| 2026-05-06 21:05 | -35.07116 | -58.93523 | 13050 ft | 118 kts | 250° |
| 2026-05-06 21:05 | -35.07596 | -58.94356 | 13128 ft | 129 kts | 251° |
| 2026-05-06 21:05 | -35.08144 | -58.95372 | 13224 ft | 154 kts | 249° |
| 2026-05-06 21:05 | -35.08785 | -58.96516 | 13392 ft | 172 kts | 246° |
| 2026-05-06 21:06 | -35.09500 | -58.97762 | 13544 ft | 185 kts | 245° |
| 2026-05-06 21:06 | -35.10261 | -58.99069 | 13687 ft | 193 kts | 245° |
| 2026-05-06 21:06 | -35.11061 | -59.00435 | 13816 ft | 199 kts | 244° |
| 2026-05-06 21:06 | -35.11874 | -59.01820 | 13942 ft | 202 kts | 244° |
| 2026-05-06 21:07 | -35.12700 | -59.03228 | 14068 ft | 204 kts | 244° |
| 2026-05-06 21:07 | -35.13521 | -59.04633 | 14190 ft | 205 kts | 244° |
| 2026-05-06 21:07 | -35.14354 | -59.06064 | 14312 ft | 206 kts | 244° |
| 2026-05-06 21:07 | -35.15184 | -59.07493 | 14436 ft | 207 kts | 244° |
| 2026-05-06 21:08 | -35.16022 | -59.08933 | 14563 ft | 207 kts | 244° |
| 2026-05-06 21:08 | -35.16850 | -59.10356 | 14703 ft | 207 kts | 244° |
| 2026-05-06 21:08 | -35.17675 | -59.11787 | 14857 ft | 207 kts | 244° |
| 2026-05-06 21:08 | -35.18497 | -59.13205 | 15132 ft | 200 kts | 245° |
| 2026-05-06 21:09 | -35.19294 | -59.14572 | 15352 ft | 196 kts | 245° |
| 2026-05-06 21:09 | -35.20065 | -59.15895 | 15607 ft | 186 kts | 245° |
| 2026-05-06 21:09 | -35.20784 | -59.17117 | 15755 ft | 167 kts | 245° |
| 2026-05-06 21:09 | -35.21412 | -59.18142 | 15948 ft | 134 kts | 250° |
| 2026-05-06 21:10 | -35.21964 | -59.18819 | 15885 ft | 113 kts | 203° |
| 2026-05-06 21:10 | -35.22562 | -59.18754 | 13114 ft | 194 kts | 160° |
| 2026-05-06 21:10 | -35.23683 | -59.18511 | 10959 ft | 172 kts | 213° |
| 2026-05-06 21:10 | -35.24466 | -59.19485 | 9818 ft | 169 kts | 263° |
| 2026-05-06 21:11 | -35.24779 | -59.20834 | 9551 ft | 163 kts | 262° |
| 2026-05-06 21:11 | -35.25247 | -59.22296 | 8691 ft | 218 kts | 256° |
| 2026-05-06 21:11 | -35.25800 | -59.23966 | 8884 ft | 204 kts | 254° |
| 2026-05-06 21:11 | -35.26439 | -59.25573 | 9051 ft | 210 kts | 258° |
| 2026-05-06 21:12 | -35.26578 | -59.27369 | 8846 ft | 224 kts | 282° |
| 2026-05-06 21:12 | -35.26121 | -59.29208 | 8908 ft | 219 kts | 289° |
| 2026-05-06 21:12 | -35.25952 | -59.31041 | 9124 ft | 224 kts | 281° |
| 2026-05-06 21:12 | -35.26047 | -59.32841 | 9776 ft | 208 kts | 271° |
| 2026-05-06 21:13 | -35.25692 | -59.34619 | 9368 ft | 225 kts | 305° |
| 2026-05-06 21:13 | -35.24553 | -59.35936 | 9222 ft | 235 kts | 330° |
| 2026-05-06 21:13 | -35.23061 | -59.36787 | 9274 ft | 235 kts | 320° |
| 2026-05-06 21:13 | -35.22410 | -59.38537 | 9720 ft | 232 kts | 282° |
| 2026-05-06 21:14 | -35.22536 | -59.40478 | 10310 ft | 227 kts | 264° |
| 2026-05-06 21:14 | -35.23077 | -59.42306 | 10444 ft | 244 kts | 246° |
| 2026-05-06 21:14 | -35.23966 | -59.43985 | 11122 ft | 230 kts | 244° |
| 2026-05-06 21:14 | -35.24842 | -59.45597 | 11526 ft | 223 kts | 250° |
| 2026-05-06 21:15 | -35.25634 | -59.47155 | 12260 ft | 210 kts | 245° |
| 2026-05-06 21:15 | -35.26508 | -59.48588 | 12649 ft | 217 kts | 237° |
| 2026-05-06 21:15 | -35.27558 | -59.49958 | 12890 ft | 227 kts | 233° |
| 2026-05-06 21:15 | -35.28629 | -59.51351 | 13315 ft | 219 kts | 241° |
| 2026-05-06 21:16 | -35.29465 | -59.52865 | 13692 ft | 213 kts | 249° |
| 2026-05-06 21:16 | -35.30090 | -59.54476 | 14066 ft | 202 kts | 263° |
| 2026-05-06 21:16 | -35.30296 | -59.56128 | 14489 ft | 193 kts | 275° |
| 2026-05-06 21:16 | -35.30209 | -59.57737 | 14850 ft | 189 kts | 286° |
| 2026-05-06 21:17 | -35.29826 | -59.59243 | 15194 ft | 185 kts | 296° |
| 2026-05-06 21:17 | -35.29236 | -59.60615 | 15559 ft | 182 kts | 304° |
| 2026-05-06 21:17 | -35.28475 | -59.61850 | 15899 ft | 181 kts | 311° |
| 2026-05-06 21:17 | -35.27603 | -59.62965 | 16208 ft | 183 kts | 314° |
| 2026-05-06 21:18 | -35.27006 | -59.63708 | 16291 ft | 188 kts | 314° |
| 2026-05-06 21:18 | -35.26512 | -59.65122 | 16657 ft | 192 kts | 274° |
| 2026-05-06 21:18 | -35.27090 | -59.66667 | 17024 ft | 210 kts | 242° |
| 2026-05-06 21:18 | -35.28085 | -59.67974 | 17386 ft | 212 kts | 237° |
| 2026-05-06 21:19 | -35.29112 | -59.69245 | 17735 ft | 210 kts | 237° |
| 2026-05-06 21:19 | -35.30378 | -59.70285 | 18072 ft | 224 kts | 217° |
| 2026-05-06 21:19 | -35.31797 | -59.71061 | 18436 ft | 224 kts | 216° |
| 2026-05-06 21:19 | -35.33214 | -59.71827 | 18734 ft | 224 kts | 215° |
| 2026-05-06 21:20 | -35.34644 | -59.72607 | 18963 ft | 227 kts | 217° |
| 2026-05-06 21:20 | -35.36074 | -59.73403 | 19223 ft | 228 kts | 216° |
| 2026-05-06 21:20 | -35.37517 | -59.74199 | 19511 ft | 228 kts | 216° |
| 2026-05-06 21:20 | -35.38966 | -59.75000 | 19757 ft | 229 kts | 216° |
| 2026-05-06 21:21 | -35.40420 | -59.75806 | 20002 ft | 230 kts | 216° |
| 2026-05-06 21:21 | -35.41866 | -59.76603 | 20249 ft | 230 kts | 216° |
| 2026-05-06 21:21 | -35.43318 | -59.77404 | 20496 ft | 229 kts | 217° |
| 2026-05-06 21:21 | -35.44784 | -59.78208 | 20748 ft | 228 kts | 217° |
| 2026-05-06 21:22 | -35.46207 | -59.78991 | 20995 ft | 227 kts | 217° |
| 2026-05-06 21:22 | -35.47659 | -59.79787 | 21248 ft | 226 kts | 217° |
| 2026-05-06 21:22 | -35.49091 | -59.80574 | 21498 ft | 225 kts | 217° |
| 2026-05-06 21:22 | -35.50514 | -59.81354 | 21749 ft | 224 kts | 217° |
| 2026-05-06 21:23 | -35.51919 | -59.82125 | 21996 ft | 223 kts | 217° |
| 2026-05-06 21:23 | -35.53339 | -59.82904 | 22244 ft | 222 kts | 218° |
| 2026-05-06 21:23 | -35.54746 | -59.83678 | 22419 ft | 224 kts | 218° |
| 2026-05-06 21:23 | -35.56168 | -59.84465 | 22600 ft | 226 kts | 218° |
| 2026-05-06 21:24 | -35.57608 | -59.85260 | 22780 ft | 227 kts | 218° |
| 2026-05-06 21:24 | -35.59008 | -59.86086 | 22955 ft | 223 kts | 223° |
| 2026-05-06 21:24 | -35.60265 | -59.87127 | 23135 ft | 215 kts | 232° |
| 2026-05-06 21:24 | -35.61370 | -59.88332 | 23316 ft | 209 kts | 239° |
| 2026-05-06 21:25 | -35.61954 | -59.89066 | 23419 ft | 207 kts | 241° |
| 2026-05-06 21:25 | -35.62912 | -59.90390 | 23598 ft | 204 kts | 244° |
| 2026-05-06 21:25 | -35.63798 | -59.91716 | 23773 ft | 203 kts | 245° |
| 2026-05-06 21:25 | -35.64671 | -59.93086 | 23950 ft | 202 kts | 246° |
| 2026-05-06 21:26 | -35.65513 | -59.94452 | 24127 ft | 200 kts | 247° |
| 2026-05-06 21:26 | -35.66336 | -59.95818 | 24303 ft | 200 kts | 248° |
| 2026-05-06 21:26 | -35.67157 | -59.97199 | 24482 ft | 198 kts | 248° |
| 2026-05-06 21:26 | -35.67962 | -59.98568 | 24657 ft | 197 kts | 248° |
| 2026-05-06 21:27 | -35.68756 | -59.99920 | 24832 ft | 196 kts | 249° |
| 2026-05-06 21:27 | -35.69551 | -60.01284 | 25008 ft | 195 kts | 249° |
| 2026-05-06 21:27 | -35.70343 | -60.02649 | 25187 ft | 194 kts | 249° |
| 2026-05-06 21:27 | -35.71140 | -60.04023 | 25366 ft | 193 kts | 249° |
| 2026-05-06 21:28 | -35.71919 | -60.05367 | 25541 ft | 191 kts | 249° |
| 2026-05-06 21:28 | -35.72694 | -60.06706 | 25678 ft | 192 kts | 250° |
| 2026-05-06 21:28 | -35.73479 | -60.08077 | 25699 ft | 198 kts | 250° |
| 2026-05-06 21:28 | -35.74283 | -60.09486 | 25703 ft | 204 kts | 249° |
| 2026-05-06 21:29 | -35.75108 | -60.10925 | 25701 ft | 209 kts | 249° |
| 2026-05-06 21:29 | -35.75959 | -60.12403 | 25701 ft | 213 kts | 248° |
| 2026-05-06 21:29 | -35.76820 | -60.13898 | 25700 ft | 217 kts | 248° |
| 2026-05-06 21:29 | -35.77724 | -60.15424 | 25696 ft | 226 kts | 241° |
| 2026-05-06 21:30 | -35.78946 | -60.16701 | 25705 ft | 239 kts | 231° |
| 2026-05-06 21:30 | -35.80291 | -60.17930 | 25699 ft | 242 kts | 230° |
| 2026-05-06 21:30 | -35.81643 | -60.19161 | 25699 ft | 243 kts | 230° |
| 2026-05-06 21:30 | -35.83012 | -60.20409 | 25698 ft | 245 kts | 230° |
| 2026-05-06 21:31 | -35.84385 | -60.21658 | 25697 ft | 246 kts | 230° |
| 2026-05-06 21:31 | -35.85763 | -60.22912 | 25697 ft | 247 kts | 230° |
| 2026-05-06 21:31 | -35.87150 | -60.24172 | 25698 ft | 247 kts | 230° |
| 2026-05-06 21:31 | -35.88524 | -60.25420 | 25697 ft | 248 kts | 230° |
| 2026-05-06 21:32 | -35.89925 | -60.26692 | 25697 ft | 249 kts | 230° |
| 2026-05-06 21:32 | -35.92702 | -60.29211 | 25697 ft | 249 kts | 230° |
| 2026-05-06 21:32 | -35.94103 | -60.30478 | 25698 ft | 250 kts | 230° |
| 2026-05-06 21:33 | -35.95499 | -60.31742 | 25697 ft | 250 kts | 230° |
| 2026-05-06 21:33 | -35.96888 | -60.33000 | 25697 ft | 250 kts | 230° |
| 2026-05-06 21:33 | -35.98289 | -60.34269 | 25697 ft | 250 kts | 230° |
| 2026-05-06 21:33 | -35.99693 | -60.35539 | 25697 ft | 250 kts | 230° |
| 2026-05-06 21:34 | -36.01098 | -60.36810 | 25697 ft | 251 kts | 230° |
| 2026-05-06 21:34 | -36.02511 | -60.38089 | 25696 ft | 251 kts | 230° |
| 2026-05-06 21:34 | -36.03912 | -60.39356 | 25697 ft | 251 kts | 230° |
| 2026-05-06 21:34 | -36.05164 | -60.40782 | 25700 ft | 231 kts | 248° |
| 2026-05-06 21:35 | -36.05994 | -60.42442 | 25700 ft | 226 kts | 252° |
| 2026-05-06 21:35 | -36.06771 | -60.44128 | 25697 ft | 226 kts | 252° |
| 2026-05-06 21:35 | -36.07557 | -60.45840 | 25696 ft | 226 kts | 252° |
| 2026-05-06 21:35 | -36.08333 | -60.47536 | 25696 ft | 226 kts | 253° |
| 2026-05-06 21:36 | -36.09110 | -60.49241 | 25696 ft | 226 kts | 253° |
| 2026-05-06 21:36 | -36.09883 | -60.50943 | 25696 ft | 226 kts | 253° |
| 2026-05-06 21:36 | -36.10659 | -60.52658 | 25687 ft | 226 kts | 253° |
| 2026-05-06 21:36 | -36.11428 | -60.54353 | 25686 ft | 225 kts | 253° |
| 2026-05-06 21:37 | -36.12200 | -60.56057 | 25685 ft | 224 kts | 253° |
| 2026-05-06 21:37 | -36.12967 | -60.57754 | 25685 ft | 224 kts | 253° |
| 2026-05-06 21:37 | -36.13730 | -60.59448 | 25685 ft | 223 kts | 253° |
| 2026-05-06 21:37 | -36.14492 | -60.61136 | 25684 ft | 223 kts | 253° |
| 2026-05-06 21:38 | -36.15243 | -60.62803 | 25685 ft | 223 kts | 253° |
| 2026-05-06 21:38 | -36.16004 | -60.64482 | 25685 ft | 224 kts | 253° |
| 2026-05-06 21:38 | -36.16785 | -60.66168 | 25695 ft | 223 kts | 253° |
| 2026-05-06 21:38 | -36.17548 | -60.67831 | 25696 ft | 224 kts | 253° |
| 2026-05-06 21:39 | -36.18347 | -60.69498 | 25692 ft | 231 kts | 246° |
| 2026-05-06 21:39 | -36.19760 | -60.70724 | 25721 ft | 256 kts | 223° |
| 2026-05-06 21:39 | -36.20906 | -60.72152 | 25720 ft | 219 kts | 256° |
| 2026-05-06 21:39 | -36.21522 | -60.73845 | 25701 ft | 217 kts | 259° |
| 2026-05-06 21:40 | -36.22165 | -60.75565 | 25697 ft | 219 kts | 257° |
| 2026-05-06 21:40 | -36.22860 | -60.77285 | 25696 ft | 221 kts | 256° |
| 2026-05-06 21:40 | -36.23555 | -60.78976 | 25696 ft | 221 kts | 256° |
| 2026-05-06 21:40 | -36.24274 | -60.80695 | 25695 ft | 222 kts | 255° |
| 2026-05-06 21:41 | -36.25000 | -60.82387 | 25695 ft | 223 kts | 255° |
| 2026-05-06 21:41 | -36.25743 | -60.84088 | 25695 ft | 223 kts | 255° |
| 2026-05-06 21:41 | -36.26486 | -60.85780 | 25694 ft | 224 kts | 255° |
| 2026-05-06 21:41 | -36.27236 | -60.87480 | 25695 ft | 224 kts | 255° |
| 2026-05-06 21:42 | -36.27984 | -60.89169 | 25694 ft | 224 kts | 255° |
| 2026-05-06 21:42 | -36.28743 | -60.90880 | 25695 ft | 224 kts | 255° |
| 2026-05-06 21:42 | -36.29492 | -60.92566 | 25694 ft | 224 kts | 254° |
| 2026-05-06 21:42 | -36.30246 | -60.94260 | 25693 ft | 224 kts | 255° |
| 2026-05-06 21:43 | -36.31010 | -60.95978 | 25694 ft | 224 kts | 255° |
| 2026-05-06 21:43 | -36.31764 | -60.97672 | 25694 ft | 224 kts | 255° |
| 2026-05-06 21:43 | -36.32520 | -60.99379 | 25694 ft | 224 kts | 255° |
| 2026-05-06 21:43 | -36.33277 | -61.01085 | 25694 ft | 224 kts | 255° |
| 2026-05-06 21:44 | -36.34032 | -61.02788 | 25693 ft | 224 kts | 255° |
| 2026-05-06 21:44 | -36.34787 | -61.04490 | 25693 ft | 224 kts | 255° |
| 2026-05-06 21:44 | -36.35553 | -61.06216 | 25694 ft | 225 kts | 255° |
| 2026-05-06 21:44 | -36.36309 | -61.07923 | 25693 ft | 225 kts | 255° |
| 2026-05-06 21:45 | -36.37067 | -61.09636 | 25694 ft | 225 kts | 255° |
| 2026-05-06 21:45 | -36.37826 | -61.11346 | 25693 ft | 225 kts | 255° |
| 2026-05-06 21:45 | -36.38577 | -61.13045 | 25693 ft | 225 kts | 255° |
| 2026-05-06 21:45 | -36.39331 | -61.14754 | 25693 ft | 225 kts | 255° |
| 2026-05-06 21:46 | -36.40088 | -61.16466 | 25693 ft | 225 kts | 255° |
| 2026-05-06 21:46 | -36.40845 | -61.18180 | 25693 ft | 225 kts | 255° |
| 2026-05-06 21:46 | -36.41595 | -61.19879 | 25692 ft | 225 kts | 255° |
| 2026-05-06 21:46 | -36.42353 | -61.21597 | 25692 ft | 225 kts | 255° |
| 2026-05-06 21:47 | -36.43105 | -61.23302 | 25693 ft | 225 kts | 255° |
| 2026-05-06 21:47 | -36.43855 | -61.25003 | 25694 ft | 225 kts | 255° |
| 2026-05-06 21:47 | -36.44606 | -61.26706 | 25691 ft | 225 kts | 255° |
| 2026-05-06 21:47 | -36.45355 | -61.28409 | 25692 ft | 224 kts | 255° |
| 2026-05-06 21:48 | -36.46116 | -61.30137 | 25691 ft | 224 kts | 255° |
| 2026-05-06 21:48 | -36.46865 | -61.31840 | 25692 ft | 224 kts | 255° |
| 2026-05-06 21:48 | -36.47620 | -61.33557 | 25691 ft | 224 kts | 255° |
| 2026-05-06 21:48 | -36.48368 | -61.35260 | 25692 ft | 224 kts | 255° |
| 2026-05-06 21:49 | -36.49113 | -61.36957 | 25692 ft | 223 kts | 255° |
| 2026-05-06 21:49 | -36.49863 | -61.38663 | 25694 ft | 222 kts | 255° |
| 2026-05-06 21:49 | -36.50603 | -61.40350 | 25697 ft | 222 kts | 255° |
| 2026-05-06 21:49 | -36.51347 | -61.42045 | 25700 ft | 222 kts | 255° |
| 2026-05-06 21:50 | -36.52087 | -61.43732 | 25703 ft | 222 kts | 255° |
| 2026-05-06 21:50 | -36.52831 | -61.45433 | 25705 ft | 222 kts | 255° |
| 2026-05-06 21:50 | -36.53567 | -61.47115 | 25705 ft | 223 kts | 255° |
| 2026-05-06 21:50 | -36.54312 | -61.48819 | 25705 ft | 223 kts | 255° |
| 2026-05-06 21:51 | -36.55052 | -61.50512 | 25706 ft | 223 kts | 255° |
| 2026-05-06 21:51 | -36.55796 | -61.52213 | 25707 ft | 223 kts | 255° |
| 2026-05-06 21:51 | -36.56540 | -61.53917 | 25708 ft | 223 kts | 255° |
| 2026-05-06 21:51 | -36.57288 | -61.55629 | 25710 ft | 223 kts | 255° |
| 2026-05-06 21:52 | -36.58034 | -61.57338 | 25714 ft | 223 kts | 255° |
| 2026-05-06 21:52 | -36.58780 | -61.59049 | 25714 ft | 223 kts | 255° |
| 2026-05-06 21:52 | -36.59516 | -61.60736 | 25717 ft | 223 kts | 255° |
| 2026-05-06 21:52 | -36.60264 | -61.62452 | 25719 ft | 223 kts | 256° |
| 2026-05-06 21:53 | -36.61001 | -61.64142 | 25723 ft | 223 kts | 256° |
| 2026-05-06 21:53 | -36.61740 | -61.65842 | 25737 ft | 223 kts | 256° |
| 2026-05-06 21:53 | -36.62481 | -61.67548 | 25742 ft | 223 kts | 256° |
| 2026-05-06 21:53 | -36.63221 | -61.69249 | 25745 ft | 224 kts | 256° |
| 2026-05-06 21:54 | -36.63965 | -61.70962 | 25743 ft | 224 kts | 256° |
| 2026-05-06 21:54 | -36.64712 | -61.72681 | 25738 ft | 225 kts | 256° |
| 2026-05-06 21:54 | -36.69267 | -61.83190 | 25751 ft | 226 kts | 256° |
| 2026-05-06 21:54 | -36.71316 | -61.87925 | 25714 ft | 228 kts | 256° |
| 2026-05-06 21:55 | -36.72071 | -61.89677 | 25707 ft | 228 kts | 256° |
| 2026-05-06 21:55 | -36.72825 | -61.91423 | 25705 ft | 228 kts | 256° |
| 2026-05-06 21:55 | -36.73571 | -61.93152 | 25707 ft | 227 kts | 256° |
| 2026-05-06 21:55 | -36.74323 | -61.94895 | 25712 ft | 227 kts | 256° |
| 2026-05-06 21:56 | -36.75079 | -61.96647 | 25717 ft | 227 kts | 256° |
| 2026-05-06 21:56 | -36.75829 | -61.98389 | 25721 ft | 227 kts | 256° |
| 2026-05-06 21:56 | -36.76571 | -62.00114 | 25727 ft | 227 kts | 256° |
| 2026-05-06 21:56 | -36.77323 | -62.01851 | 25731 ft | 227 kts | 256° |
| 2026-05-06 21:57 | -36.78083 | -62.03615 | 25738 ft | 227 kts | 256° |
| 2026-05-06 21:57 | -36.78830 | -62.05357 | 25742 ft | 227 kts | 256° |
| 2026-05-06 21:57 | -36.79577 | -62.07097 | 25747 ft | 227 kts | 256° |
| 2026-05-06 21:57 | -36.80319 | -62.08827 | 25752 ft | 227 kts | 256° |
| 2026-05-06 21:58 | -36.81069 | -62.10575 | 25752 ft | 227 kts | 256° |
| 2026-05-06 21:58 | -36.81817 | -62.12318 | 25753 ft | 227 kts | 256° |
| 2026-05-06 21:58 | -36.82576 | -62.14082 | 25753 ft | 228 kts | 256° |
| 2026-05-06 21:58 | -36.83327 | -62.15834 | 25752 ft | 228 kts | 256° |
| 2026-05-06 21:59 | -36.84071 | -62.17572 | 25749 ft | 228 kts | 256° |
| 2026-05-06 21:59 | -36.84825 | -62.19334 | 25745 ft | 229 kts | 256° |
| 2026-05-06 21:59 | -36.85573 | -62.21085 | 25739 ft | 229 kts | 256° |
| 2026-05-06 21:59 | -36.86320 | -62.22832 | 25735 ft | 229 kts | 256° |
| 2026-05-06 22:00 | -36.87076 | -62.24599 | 25732 ft | 229 kts | 256° |
| 2026-05-06 22:00 | -36.87832 | -62.26367 | 25730 ft | 229 kts | 256° |
| 2026-05-06 22:00 | -36.88577 | -62.28110 | 25727 ft | 229 kts | 256° |
| 2026-05-06 22:00 | -36.89326 | -62.29865 | 25726 ft | 229 kts | 256° |
| 2026-05-06 22:01 | -36.90080 | -62.31630 | 25725 ft | 229 kts | 256° |
| 2026-05-06 22:01 | -36.90830 | -62.33389 | 25726 ft | 229 kts | 256° |
| 2026-05-06 22:01 | -36.91587 | -62.35164 | 25727 ft | 229 kts | 256° |
| 2026-05-06 22:01 | -36.92342 | -62.36935 | 25728 ft | 230 kts | 256° |
| 2026-05-06 22:02 | -36.93087 | -62.38684 | 25731 ft | 230 kts | 256° |
| 2026-05-06 22:02 | -36.93845 | -62.40467 | 25734 ft | 230 kts | 256° |
| 2026-05-06 22:02 | -36.94589 | -62.42216 | 25736 ft | 230 kts | 256° |
| 2026-05-06 22:02 | -36.95339 | -62.43983 | 25737 ft | 230 kts | 256° |
| 2026-05-06 22:03 | -36.96095 | -62.45763 | 25738 ft | 230 kts | 256° |
| 2026-05-06 22:03 | -36.96848 | -62.47538 | 25736 ft | 230 kts | 256° |
| 2026-05-06 22:03 | -36.97592 | -62.49291 | 25734 ft | 230 kts | 256° |
| 2026-05-06 22:03 | -36.98345 | -62.51067 | 25731 ft | 230 kts | 256° |
| 2026-05-06 22:04 | -36.99106 | -62.52861 | 25728 ft | 231 kts | 256° |
| 2026-05-06 22:04 | -36.99854 | -62.54628 | 25727 ft | 231 kts | 256° |
| 2026-05-06 22:04 | -37.00608 | -62.56408 | 25725 ft | 231 kts | 256° |